createdAt,value
2023-01-28T00:00:46.211Z,2.95
2023-01-28T00:02:19.436Z,2.88
2023-01-28T00:03:52.257Z,3.92
2023-01-28T00:05:26.929Z,3.30
2023-01-28T00:06:59.398Z,3.03
2023-01-28T00:08:36.022Z,2.63
2023-01-28T00:10:10.854Z,3.38
2023-01-28T00:13:17.701Z,2.60
2023-01-28T00:14:51.086Z,2.72
2023-01-28T00:16:24.410Z,2.90
2023-01-28T00:17:57.658Z,3.00
2023-01-28T00:19:30.845Z,2.50
2023-01-28T00:21:08.830Z,2.88
2023-01-28T00:22:41.989Z,3.20
2023-01-28T00:24:15.370Z,2.50
2023-01-28T00:25:48.755Z,2.35
2023-01-28T00:27:21.923Z,2.90
2023-01-28T00:28:55.628Z,2.25
2023-01-28T00:30:28.916Z,2.58
2023-01-28T00:32:02.493Z,2.38
2023-01-28T00:33:36.048Z,2.70
2023-01-28T00:35:10.524Z,2.50
2023-01-28T00:36:45.208Z,2.58
2023-01-28T00:38:18.719Z,2.78
2023-01-28T00:39:52.695Z,2.65
2023-01-28T00:41:29.008Z,2.65
2023-01-28T00:43:04.646Z,2.25
2023-01-28T00:44:37.936Z,2.45
2023-01-28T00:46:13.846Z,2.75
2023-01-28T00:47:48.333Z,2.47
2023-01-28T00:49:21.689Z,2.67
2023-01-28T00:50:54.878Z,2.60
2023-01-28T00:52:30.054Z,2.28
2023-01-28T00:54:03.471Z,2.40
2023-01-28T00:55:36.764Z,2.70
2023-01-28T00:57:10.032Z,2.92
2023-01-28T00:58:42.699Z,2.80
2023-01-28T01:00:16.851Z,2.38
2023-01-28T01:01:50.161Z,2.20
2023-01-28T01:03:23.395Z,2.40
2023-01-28T01:04:58.730Z,2.58
2023-01-28T01:06:36.558Z,2.60
2023-01-28T01:08:11.356Z,2.10
2023-01-28T01:09:44.537Z,2.67
2023-01-28T01:11:18.738Z,2.78
2023-01-28T01:12:52.103Z,2.70
2023-01-28T01:14:26.209Z,2.55
2023-01-28T01:16:08.910Z,2.63
2023-01-28T01:17:45.044Z,2.78
2023-01-28T01:19:18.252Z,2.50
2023-01-28T01:20:52.197Z,2.78
2023-01-28T01:22:25.968Z,2.70
2023-01-28T01:24:00.667Z,2.72
2023-01-28T01:25:33.961Z,2.78
2023-01-28T01:27:07.133Z,2.33
2023-01-28T01:28:39.356Z,2.70
2023-01-28T01:30:14.295Z,2.67
2023-01-28T01:31:47.480Z,2.30
2023-01-28T01:33:20.668Z,2.55
2023-01-28T01:34:54.643Z,2.90
2023-01-28T01:36:27.823Z,2.63
2023-01-28T01:38:01.130Z,2.65
2023-01-28T01:39:34.903Z,2.92
2023-01-28T01:41:09.109Z,2.80
2023-01-28T01:42:42.280Z,2.83
2023-01-28T01:45:00.625Z,2.42
2023-01-28T01:46:41.135Z,2.47
2023-01-28T01:48:21.090Z,2.25
2023-01-28T01:49:54.772Z,2.38
2023-01-28T01:51:34.719Z,2.40
2023-01-28T01:53:15.130Z,2.20
2023-01-28T01:54:58.171Z,2.20
2023-01-28T01:56:39.659Z,2.30
2023-01-28T01:58:18.343Z,2.42
2023-01-28T01:59:51.867Z,2.65
2023-01-28T02:01:30.644Z,2.53
2023-01-28T02:03:04.364Z,2.40
2023-01-28T02:04:44.494Z,2.45
2023-01-28T02:06:23.619Z,2.50
2023-01-28T02:08:20.916Z,2.50
2023-01-28T02:09:55.525Z,2.00
2023-01-28T02:11:34.111Z,2.17
2023-01-28T02:13:06.335Z,2.50
2023-01-28T02:14:46.540Z,2.03
2023-01-28T02:16:22.229Z,2.30
2023-01-28T02:17:56.187Z,2.50
2023-01-28T02:19:37.884Z,2.30
2023-01-28T02:21:43.465Z,3.13
2023-01-28T02:23:47.655Z,2.38
2023-01-28T02:25:51.542Z,2.20
2023-01-28T02:27:36.528Z,2.00
2023-01-28T02:29:22.202Z,2.38
2023-01-28T02:31:17.011Z,2.33
2023-01-28T02:32:58.781Z,2.55
2023-01-28T02:34:42.394Z,2.17
2023-01-28T02:36:28.916Z,2.42
2023-01-28T02:39:45.861Z,2.40
2023-01-28T02:41:27.957Z,2.40
2023-01-28T02:43:00.517Z,2.40
2023-01-28T02:44:35.434Z,1.98
2023-01-28T02:46:52.539Z,2.30
2023-01-28T02:48:27.944Z,2.53
2023-01-28T02:50:08.108Z,2.45
2023-01-28T02:52:09.830Z,2.58
2023-01-28T02:53:51.996Z,2.40
2023-01-28T02:55:40.464Z,2.30
2023-01-28T02:57:36.715Z,2.35
2023-01-28T02:59:35.480Z,2.50
2023-01-28T03:01:24.590Z,2.28
2023-01-28T03:03:10.775Z,2.20
2023-01-28T03:04:55.687Z,2.40
2023-01-28T03:06:35.743Z,2.53
2023-01-28T03:08:26.401Z,2.38
2023-01-28T03:10:04.271Z,2.63
2023-01-28T03:12:00.702Z,2.30
2023-01-28T03:13:52.525Z,2.30
2023-01-28T03:15:50.554Z,2.25
2023-01-28T03:17:49.431Z,2.30
2023-01-28T03:19:42.365Z,2.47
2023-01-28T03:21:40.414Z,2.20
2023-01-28T03:25:36.512Z,2.20
2023-01-28T03:27:38.247Z,2.50
2023-01-28T03:29:36.252Z,2.42
2023-01-28T03:31:34.320Z,2.28
2023-01-28T03:33:27.704Z,2.00
2023-01-28T03:35:18.810Z,2.33
2023-01-28T03:36:53.271Z,2.42
2023-01-28T03:38:48.816Z,2.28
2023-01-28T03:40:23.241Z,2.22
2023-01-28T03:42:03.476Z,2.03
2023-01-28T03:43:37.678Z,2.30
2023-01-28T03:45:11.456Z,2.17
2023-01-28T03:46:44.879Z,2.03
2023-01-28T03:48:19.801Z,2.42
2023-01-28T03:49:55.559Z,2.15
2023-01-28T03:51:29.257Z,2.45
2023-01-28T03:53:13.523Z,2.30
2023-01-28T03:54:52.901Z,2.25
2023-01-28T03:56:28.375Z,2.28
2023-01-28T03:58:01.710Z,2.20
2023-01-28T03:59:34.325Z,2.60
2023-01-28T04:01:07.829Z,2.58
2023-01-28T04:02:41.193Z,2.55
2023-01-28T04:04:23.567Z,2.50
2023-01-28T04:06:03.892Z,2.60
2023-01-28T04:07:56.634Z,2.25
2023-01-28T04:09:49.792Z,2.08
2023-01-28T04:11:32.479Z,2.00
2023-01-28T04:13:08.616Z,2.00
2023-01-28T04:14:41.859Z,2.35
2023-01-28T04:16:20.478Z,2.30
2023-01-28T04:17:53.747Z,2.33
2023-01-28T04:19:37.241Z,2.30
2023-01-28T04:21:11.478Z,2.10
2023-01-28T04:22:44.927Z,1.90
2023-01-28T04:24:20.331Z,2.28
2023-01-28T04:25:52.805Z,2.05
2023-01-28T04:27:26.478Z,2.08
2023-01-28T04:28:59.428Z,1.98
2023-01-28T04:30:32.669Z,1.88
2023-01-28T04:32:15.297Z,2.30
2023-01-28T04:34:09.167Z,2.10
2023-01-28T04:35:51.811Z,1.67
2023-01-28T04:37:33.118Z,2.47
2023-01-28T04:39:19.974Z,2.20
2023-01-28T04:41:12.354Z,1.70
2023-01-28T04:42:55.045Z,1.95
2023-01-28T04:44:37.850Z,1.95
2023-01-28T04:46:23.628Z,1.77
2023-01-28T04:48:07.880Z,2.08
2023-01-28T04:49:53.708Z,1.77
2023-01-28T04:51:50.598Z,2.30
2023-01-28T04:53:38.355Z,1.80
2023-01-28T04:55:30.292Z,1.70
2023-01-28T04:57:04.184Z,1.83
2023-01-28T04:58:38.258Z,1.70
2023-01-28T05:00:15.948Z,2.05
2023-01-28T05:01:49.195Z,1.70
2023-01-28T05:03:21.496Z,1.85
2023-01-28T05:04:54.875Z,1.80
2023-01-28T05:06:41.733Z,2.10
2023-01-28T05:08:25.404Z,1.75
2023-01-28T05:09:59.049Z,1.90
2023-01-28T05:11:32.303Z,1.98
2023-01-28T05:13:09.152Z,1.95
2023-01-28T05:14:42.505Z,2.00
2023-01-28T05:16:20.222Z,2.17
2023-01-28T05:17:57.223Z,1.88
2023-01-28T05:19:31.764Z,1.80
2023-01-28T05:21:06.568Z,2.25
2023-01-28T05:22:43.499Z,2.03
2023-01-28T05:24:23.192Z,2.03
2023-01-28T05:25:57.823Z,1.92
2023-01-28T05:27:30.345Z,2.03
2023-01-28T05:29:03.528Z,2.42
2023-01-28T05:30:36.760Z,2.30
2023-01-28T05:32:09.119Z,2.22
2023-01-28T05:33:42.342Z,2.08
2023-01-28T05:35:18.676Z,2.13
2023-01-28T05:36:51.282Z,2.30
2023-01-28T05:38:35.215Z,2.30
2023-01-28T05:40:10.312Z,2.20
2023-01-28T05:41:45.382Z,2.15
2023-01-28T05:43:19.033Z,2.47
2023-01-28T05:45:00.955Z,2.45
2023-01-28T05:46:54.026Z,2.25
2023-01-28T05:48:47.117Z,2.88
2023-01-28T05:50:40.501Z,2.80
2023-01-28T05:52:18.087Z,2.50
2023-01-28T05:53:52.029Z,2.38
2023-01-28T05:55:26.611Z,2.17
2023-01-28T05:57:01.746Z,2.30
2023-01-28T05:58:35.884Z,2.60
2023-01-28T06:00:13.264Z,2.67
2023-01-28T06:01:49.850Z,2.30
2023-01-28T06:03:23.530Z,2.33
2023-01-28T06:04:56.866Z,2.75
2023-01-28T06:06:30.321Z,2.97
2023-01-28T06:08:03.724Z,2.75
2023-01-28T06:09:36.994Z,3.00
2023-01-28T06:11:11.094Z,2.88
2023-01-28T06:12:46.360Z,2.33
2023-01-28T06:14:39.614Z,3.13
2023-01-28T06:16:32.738Z,2.35
2023-01-28T06:18:15.417Z,2.80
2023-01-28T06:19:48.676Z,2.85
2023-01-28T06:21:22.299Z,2.90
2023-01-28T06:22:56.653Z,2.65
2023-01-28T06:24:30.259Z,2.72
2023-01-28T06:26:03.590Z,2.50
2023-01-28T06:27:36.959Z,2.90
2023-01-28T06:29:11.616Z,3.20
2023-01-28T06:30:44.804Z,2.85
2023-01-28T06:32:18.014Z,2.75
2023-01-28T06:33:51.340Z,3.08
2023-01-28T06:35:25.535Z,3.10
2023-01-28T06:36:58.743Z,3.25
2023-01-28T06:38:32.085Z,3.13
2023-01-28T06:40:06.797Z,3.50
2023-01-28T06:41:40.184Z,3.13
2023-01-28T06:43:13.527Z,2.80
2023-01-28T06:44:47.999Z,3.20
2023-01-28T06:46:21.262Z,2.90
2023-01-28T06:47:54.502Z,2.75
2023-01-28T06:49:27.669Z,2.92
2023-01-28T06:51:00.950Z,3.58
2023-01-28T06:52:34.169Z,3.97
2023-01-28T06:54:07.826Z,4.05
2023-01-28T06:55:41.147Z,3.50
2023-01-28T06:57:14.325Z,3.67
2023-01-28T06:58:47.653Z,3.67
2023-01-28T07:00:23.037Z,3.97
2023-01-28T07:01:56.406Z,4.25
2023-01-28T07:03:30.113Z,3.67
2023-01-28T07:05:03.643Z,3.70
2023-01-28T07:06:36.773Z,3.53
2023-01-28T07:08:10.092Z,3.30
2023-01-28T07:09:43.229Z,3.40
2023-01-28T07:11:16.651Z,3.33
2023-01-28T07:12:49.945Z,3.20
2023-01-28T07:14:23.094Z,3.15
2023-01-28T07:15:58.143Z,3.17
2023-01-28T07:19:04.917Z,3.25
2023-01-28T07:20:38.145Z,3.40
2023-01-28T07:22:11.292Z,3.42
2023-01-28T07:23:44.434Z,3.83
2023-01-28T07:25:17.077Z,3.50
2023-01-28T07:26:50.393Z,2.88
2023-01-28T07:28:23.856Z,3.17
2023-01-28T07:29:56.987Z,3.30
2023-01-28T07:31:31.615Z,2.80
2023-01-28T07:33:05.127Z,2.92
2023-01-28T07:34:40.064Z,2.90
2023-01-28T07:36:13.282Z,2.72
2023-01-28T07:37:53.372Z,3.10
2023-01-28T07:39:26.916Z,2.63
2023-01-28T07:41:00.297Z,2.70
2023-01-28T07:42:33.256Z,2.45
2023-01-28T07:44:11.855Z,2.65
2023-01-28T07:45:47.602Z,2.60
2023-01-28T07:47:23.454Z,2.85
2023-01-28T07:48:56.776Z,2.28
2023-01-28T07:50:34.018Z,2.97
2023-01-28T07:52:06.280Z,2.42
2023-01-28T07:53:40.081Z,2.70
2023-01-28T07:55:15.643Z,2.50
2023-01-28T07:56:49.026Z,2.60
2023-01-28T07:58:22.230Z,2.60
2023-01-28T07:59:55.529Z,2.35
2023-01-28T08:01:28.860Z,2.00
2023-01-28T08:03:05.972Z,2.20
2023-01-28T08:04:40.451Z,2.20
2023-01-28T08:06:13.815Z,2.63
2023-01-28T08:07:48.515Z,2.80
2023-01-28T08:09:21.638Z,2.42
2023-01-28T08:10:55.153Z,2.78
2023-01-28T08:12:28.280Z,2.65
2023-01-28T08:14:01.556Z,2.70
2023-01-28T08:15:37.174Z,2.42
2023-01-28T08:17:10.427Z,2.80
2023-01-28T08:18:48.599Z,2.50
2023-01-28T08:20:22.567Z,2.58
2023-01-28T08:21:55.857Z,2.72
2023-01-28T08:23:30.316Z,2.90
2023-01-28T08:25:03.436Z,2.50
2023-01-28T08:26:37.340Z,2.70
2023-01-28T08:28:11.453Z,2.42
2023-01-28T08:29:44.566Z,2.83
2023-01-28T08:31:17.737Z,2.50
2023-01-28T08:32:50.947Z,2.33
2023-01-28T08:34:25.580Z,2.35
2023-01-28T08:35:58.805Z,2.33
2023-01-28T08:37:31.977Z,2.45
2023-01-28T08:39:06.094Z,2.70
2023-01-28T08:40:39.497Z,2.60
2023-01-28T08:42:13.366Z,2.50
2023-01-28T08:43:46.602Z,2.78
2023-01-28T08:45:22.414Z,2.83
2023-01-28T08:46:55.605Z,2.50
2023-01-28T08:48:28.862Z,2.65
2023-01-28T08:50:03.539Z,2.67
2023-01-28T08:51:36.694Z,2.95
2023-01-28T08:53:13.769Z,3.10
2023-01-28T08:54:48.691Z,2.80
2023-01-28T08:56:22.082Z,3.15
2023-01-28T08:57:58.205Z,2.72
2023-01-28T08:59:31.858Z,2.55
2023-01-28T09:01:07.513Z,2.50
2023-01-28T09:02:40.859Z,2.72
2023-01-28T09:04:14.324Z,2.75
2023-01-28T09:05:49.542Z,2.78
2023-01-28T09:07:22.888Z,3.10
2023-01-28T09:08:58.389Z,3.33
2023-01-28T09:10:31.870Z,3.03
2023-01-28T09:12:05.924Z,2.95
2023-01-28T09:13:39.089Z,2.80
2023-01-28T09:15:13.581Z,3.03
2023-01-28T09:16:46.788Z,3.17
2023-01-28T09:18:20.787Z,2.80
2023-01-28T09:19:54.028Z,3.25
2023-01-28T09:21:28.728Z,3.13
2023-01-28T09:23:03.086Z,3.55
2023-01-28T09:24:38.645Z,2.90
2023-01-28T09:26:12.276Z,3.00
2023-01-28T09:27:46.659Z,3.22
2023-01-28T09:29:19.805Z,3.40
2023-01-28T09:30:53.121Z,3.80
2023-01-28T09:32:26.368Z,3.53
2023-01-28T09:33:59.523Z,2.83
2023-01-28T09:35:33.899Z,3.42
2023-01-28T09:37:08.547Z,3.05
2023-01-28T09:38:41.920Z,3.50
2023-01-28T09:40:20.372Z,3.63
2023-01-28T09:42:17.261Z,3.22
2023-01-28T09:44:11.827Z,3.70
2023-01-28T09:45:49.915Z,3.70
2023-01-28T09:47:29.919Z,3.63
2023-01-28T09:49:18.537Z,3.42
2023-01-28T09:50:55.852Z,3.22
2023-01-28T09:52:37.541Z,3.58
2023-01-28T09:54:25.076Z,3.10
2023-01-28T09:56:03.386Z,2.63
2023-01-28T09:57:46.585Z,3.53
2023-01-28T09:59:23.497Z,3.40
2023-01-28T10:01:05.900Z,3.78
2023-01-28T10:03:00.217Z,3.53
2023-01-28T10:04:55.541Z,2.83
2023-01-28T10:06:45.943Z,3.55
2023-01-28T10:08:44.585Z,2.85
2023-01-28T10:10:27.031Z,3.55
2023-01-28T10:12:17.400Z,3.72
2023-01-28T10:14:00.187Z,2.70
2023-01-28T10:15:56.773Z,2.90
2023-01-28T10:17:37.298Z,3.13
2023-01-28T10:19:21.058Z,3.67
2023-01-28T10:21:01.316Z,3.60
2023-01-28T10:22:42.667Z,3.88
2023-01-28T10:24:26.282Z,4.15
2023-01-28T10:26:06.297Z,3.05
2023-01-28T10:27:39.860Z,3.95
2023-01-28T10:29:19.123Z,3.92
2023-01-28T10:30:53.254Z,3.50
2023-01-28T10:32:31.879Z,3.63
2023-01-28T10:34:05.291Z,3.15
2023-01-28T10:35:43.490Z,4.05
2023-01-28T10:37:17.964Z,4.30
2023-01-28T10:38:52.215Z,4.00
2023-01-28T10:40:26.768Z,4.00
2023-01-28T10:42:00.071Z,4.90
2023-01-28T10:43:40.048Z,3.83
2023-01-28T10:45:21.871Z,5.13
2023-01-28T10:47:00.597Z,4.35
2023-01-28T10:48:37.707Z,3.78
2023-01-28T10:50:19.584Z,4.03
2023-01-28T10:51:52.770Z,3.03
2023-01-28T10:53:37.389Z,2.75
2023-01-28T10:55:15.892Z,2.53
2023-01-28T10:56:56.047Z,2.70
2023-01-28T10:58:34.551Z,2.30
2023-01-28T11:00:25.637Z,3.33
2023-01-28T11:02:03.621Z,2.70
2023-01-28T11:03:37.043Z,3.40
2023-01-28T11:05:20.821Z,3.53
2023-01-28T11:07:01.094Z,3.05
2023-01-28T11:08:46.127Z,3.00
2023-01-28T11:10:33.933Z,4.50
2023-01-28T11:12:20.625Z,3.95
2023-01-28T11:15:29.867Z,3.40
2023-01-28T11:17:03.271Z,3.45
2023-01-28T11:18:41.780Z,3.70
2023-01-28T11:20:23.660Z,4.55
2023-01-28T11:21:59.481Z,6.97
2023-01-28T11:23:36.828Z,5.60
2023-01-28T11:25:20.620Z,5.55
2023-01-28T11:26:57.842Z,3.72
2023-01-28T11:28:33.690Z,4.72
2023-01-28T11:30:23.000Z,3.50
2023-01-28T11:31:56.873Z,2.70
2023-01-28T11:33:37.307Z,2.88
2023-01-28T11:35:28.715Z,3.53
2023-01-28T11:37:14.016Z,3.42
2023-01-28T11:38:53.820Z,4.45
2023-01-28T11:40:27.932Z,3.72
2023-01-28T11:42:19.511Z,4.03
2023-01-28T11:43:55.527Z,3.70
2023-01-28T11:45:44.937Z,3.40
2023-01-28T11:47:40.231Z,3.47
2023-01-28T11:49:28.394Z,3.05
2023-01-28T11:51:08.400Z,2.75
2023-01-28T11:53:18.499Z,2.85
2023-01-28T11:55:12.096Z,2.60
2023-01-28T11:57:06.579Z,2.75
2023-01-28T11:58:58.436Z,2.83
2023-01-28T12:00:45.105Z,3.22
2023-01-28T12:02:45.476Z,3.05
2023-01-28T12:04:49.644Z,2.75
2023-01-28T12:06:44.126Z,2.92
2023-01-28T12:08:24.860Z,3.15
2023-01-28T12:10:04.904Z,3.10
2023-01-28T12:12:10.260Z,2.70
2023-01-28T12:14:00.251Z,2.80
2023-01-28T12:16:00.047Z,3.20
2023-01-28T12:17:55.903Z,3.03
2023-01-28T12:20:01.233Z,2.72
2023-01-28T12:22:05.425Z,3.17
2023-01-28T12:23:59.799Z,2.90
2023-01-28T12:25:49.379Z,3.10
2023-01-28T12:27:40.687Z,2.80
2023-01-28T12:29:31.272Z,2.92
2023-01-28T12:31:37.424Z,2.67
2023-01-28T12:33:48.258Z,2.90
2023-01-28T12:35:43.489Z,2.88
2023-01-28T12:37:29.205Z,3.15
2023-01-28T12:39:24.965Z,2.97
2023-01-28T12:41:11.365Z,2.80
2023-01-28T12:42:53.620Z,2.42
2023-01-28T12:44:37.164Z,2.65
2023-01-28T12:46:21.700Z,2.55
2023-01-28T12:48:02.396Z,2.60
2023-01-28T12:49:41.395Z,2.58
2023-01-28T12:51:19.297Z,2.80
2023-01-28T12:53:00.697Z,2.50
2023-01-28T12:54:43.838Z,2.60
2023-01-28T12:56:20.780Z,2.63
2023-01-28T12:57:57.882Z,2.53
2023-01-28T12:59:41.200Z,2.90
2023-01-28T13:01:22.467Z,2.40
2023-01-28T13:03:11.396Z,2.63
2023-01-28T13:04:55.404Z,2.50
2023-01-28T13:06:36.255Z,2.53
2023-01-28T13:09:55.743Z,2.33
2023-01-28T13:11:36.883Z,2.75
2023-01-28T13:13:19.678Z,2.83
2023-01-28T13:14:54.521Z,2.70
2023-01-28T13:16:37.453Z,2.70
2023-01-28T13:18:34.400Z,2.47
2023-01-28T13:20:16.507Z,2.45
2023-01-28T13:21:50.678Z,2.72
2023-01-28T13:23:37.209Z,2.47
2023-01-28T13:25:27.814Z,2.53
2023-01-28T13:27:16.361Z,2.30
2023-01-28T13:28:51.611Z,2.45
2023-01-28T13:30:30.758Z,2.60
2023-01-28T13:32:30.310Z,2.60
2023-01-28T13:34:06.321Z,2.35
2023-01-28T13:35:41.902Z,3.10
2023-01-28T13:37:26.525Z,2.80
2023-01-28T13:39:06.148Z,3.08
2023-01-28T13:40:42.673Z,2.90
2023-01-28T13:42:26.761Z,2.70
2023-01-28T13:44:01.151Z,3.38
2023-01-28T13:45:36.001Z,2.78
2023-01-28T13:47:26.555Z,2.92
2023-01-28T13:49:03.476Z,3.00
2023-01-28T13:50:43.205Z,2.95
2023-01-28T13:52:23.521Z,3.00
2023-01-28T13:54:03.412Z,2.72
2023-01-28T13:55:45.036Z,2.47
2023-01-28T13:58:13.153Z,2.47
2023-01-28T14:00:12.926Z,3.50
2023-01-28T14:02:23.335Z,3.35
2023-01-28T14:04:38.412Z,2.60
2023-01-28T14:06:49.272Z,2.72
2023-01-28T14:09:05.884Z,2.88
2023-01-28T14:11:02.824Z,2.75
2023-01-28T14:13:23.310Z,2.53
2023-01-28T14:15:41.749Z,2.63
2023-01-28T14:17:30.728Z,3.50
2023-01-28T14:19:06.038Z,3.30
2023-01-28T14:20:46.555Z,2.92
2023-01-28T14:22:22.246Z,3.47
2023-01-28T14:23:58.871Z,3.50
2023-01-28T14:25:59.530Z,2.90
2023-01-28T14:27:40.505Z,3.38
2023-01-28T14:29:48.034Z,3.25
2023-01-28T14:31:29.807Z,3.28
2023-01-28T14:33:04.646Z,3.30
2023-01-28T14:34:38.478Z,3.13
2023-01-28T14:36:13.199Z,2.92
2023-01-28T14:37:46.912Z,3.03
2023-01-28T14:39:27.264Z,6.95
2023-01-28T14:41:03.177Z,5.00
2023-01-28T14:44:26.727Z,3.10
2023-01-28T14:48:22.829Z,2.45
2023-01-28T14:50:23.691Z,2.60
2023-01-28T14:52:25.102Z,2.90
2023-01-28T14:54:18.699Z,3.20
2023-01-28T14:56:00.103Z,3.30
2023-01-28T14:57:49.733Z,3.30
2023-01-28T14:59:27.536Z,3.42
2023-01-28T15:01:02.350Z,2.72
2023-01-28T15:02:35.641Z,2.67
2023-01-28T15:04:25.404Z,2.50
2023-01-28T15:06:07.930Z,2.47
2023-01-28T15:07:46.447Z,2.50
2023-01-28T15:09:20.422Z,2.40
2023-01-28T15:11:00.551Z,2.70
2023-01-28T15:14:26.766Z,2.58
2023-01-28T15:16:00.757Z,2.15
2023-01-28T15:17:34.111Z,2.10
2023-01-28T15:19:10.498Z,2.20
2023-01-28T15:20:49.270Z,2.42
2023-01-28T15:22:28.795Z,2.25
2023-01-28T15:24:04.336Z,2.13
2023-01-28T15:25:38.034Z,2.20
2023-01-28T15:27:19.927Z,2.50
2023-01-28T15:28:55.327Z,2.22
2023-01-28T15:30:31.136Z,2.10
2023-01-28T15:32:05.993Z,2.10
2023-01-28T15:33:39.280Z,2.13
2023-01-28T15:35:15.162Z,2.30
2023-01-28T15:36:50.625Z,2.30
2023-01-28T15:38:30.217Z,2.15
2023-01-28T15:40:06.971Z,2.00
2023-01-28T15:41:46.512Z,2.38
2023-01-28T15:43:25.331Z,2.63
2023-01-28T15:44:59.629Z,2.10
2023-01-28T15:46:33.785Z,2.08
2023-01-28T15:48:09.089Z,2.05
2023-01-28T15:49:47.143Z,2.33
2023-01-28T15:51:26.411Z,2.72
2023-01-28T15:53:01.869Z,2.42
2023-01-28T15:54:39.882Z,2.50
2023-01-28T15:56:16.113Z,2.40
2023-01-28T15:57:49.627Z,2.40
2023-01-28T15:59:31.703Z,2.70
2023-01-28T16:01:17.546Z,2.40
2023-01-28T16:02:53.390Z,2.95
2023-01-28T16:04:29.671Z,2.67
2023-01-28T16:06:09.477Z,2.45
2023-01-28T16:07:47.644Z,2.50
2023-01-28T16:09:26.404Z,2.25
2023-01-28T16:10:59.907Z,2.60
2023-01-28T16:12:34.662Z,2.67
2023-01-28T16:14:08.420Z,2.95
2023-01-28T16:15:48.066Z,2.90
2023-01-28T16:17:25.887Z,3.40
2023-01-28T16:18:59.501Z,3.13
2023-01-28T16:20:33.896Z,3.45
2023-01-28T16:22:09.752Z,3.13
2023-01-28T16:23:53.448Z,2.65
2023-01-28T16:25:32.055Z,2.72
2023-01-28T16:27:08.123Z,2.65
2023-01-28T16:28:42.425Z,2.25
2023-01-28T16:30:16.962Z,2.25
2023-01-28T16:31:50.318Z,2.70
2023-01-28T16:33:23.941Z,2.33
2023-01-28T16:34:57.812Z,2.53
2023-01-28T16:36:30.963Z,2.67
2023-01-28T16:38:05.248Z,2.72
2023-01-28T16:39:38.613Z,2.33
2023-01-28T16:41:25.981Z,2.60
2023-01-28T16:42:59.599Z,2.85
2023-01-28T16:44:33.508Z,2.88
2023-01-28T16:46:13.348Z,2.47
2023-01-28T16:47:47.609Z,2.60
2023-01-28T16:49:21.001Z,2.45
2023-01-28T16:50:54.496Z,2.72
2023-01-28T16:52:28.462Z,2.67
2023-01-28T16:54:02.027Z,2.03
2023-01-28T16:55:35.185Z,2.25
2023-01-28T16:57:11.996Z,2.78
2023-01-28T16:58:46.969Z,2.45
2023-01-28T17:00:23.251Z,2.33
2023-01-28T17:01:57.434Z,2.67
2023-01-28T17:03:30.707Z,2.75
2023-01-28T17:05:04.314Z,3.28
2023-01-28T17:06:38.774Z,3.22
2023-01-28T17:08:12.236Z,2.70
2023-01-28T17:09:46.450Z,3.00
2023-01-28T17:11:19.603Z,2.53
2023-01-28T17:12:54.542Z,2.97
2023-01-28T17:16:09.772Z,2.67
2023-01-28T17:17:42.930Z,2.85
2023-01-28T17:19:18.729Z,2.90
2023-01-28T17:20:51.863Z,2.70
2023-01-28T17:22:25.200Z,3.10
2023-01-28T17:23:59.457Z,2.83
2023-01-28T17:25:32.835Z,2.63
2023-01-28T17:27:06.712Z,2.70
2023-01-28T17:28:40.566Z,3.05
2023-01-28T17:30:15.152Z,2.50
2023-01-28T17:31:48.392Z,2.47
2023-01-28T17:33:21.701Z,2.70
2023-01-28T17:34:54.819Z,2.50
2023-01-28T17:36:29.420Z,2.70
2023-01-28T17:38:03.079Z,2.55
2023-01-28T17:39:36.283Z,3.17
2023-01-28T17:41:13.792Z,2.88
2023-01-28T17:42:46.998Z,2.70
2023-01-28T17:44:21.924Z,3.25
2023-01-28T17:45:55.347Z,3.05
2023-01-28T17:47:28.435Z,2.95
2023-01-28T17:49:03.350Z,3.10
2023-01-28T17:50:39.501Z,2.78
2023-01-28T17:52:13.012Z,2.85
2023-01-28T17:53:48.307Z,2.83
2023-01-28T17:55:21.557Z,3.42
2023-01-28T17:56:55.060Z,2.90
2023-01-28T17:58:28.212Z,3.13
2023-01-28T18:00:02.834Z,2.72
2023-01-28T18:01:57.707Z,3.20
2023-01-28T18:03:30.942Z,3.42
2023-01-28T18:05:04.610Z,2.92
2023-01-28T18:06:38.673Z,3.13
2023-01-28T18:08:12.077Z,3.40
2023-01-28T18:09:46.795Z,3.53
2023-01-28T18:11:21.290Z,3.33
2023-01-28T18:12:54.733Z,3.67
2023-01-28T18:14:27.904Z,3.55
2023-01-28T18:16:01.283Z,4.45
2023-01-28T18:17:35.959Z,4.88
2023-01-28T18:19:10.272Z,4.75
2023-01-28T18:20:43.765Z,4.20
2023-01-28T18:22:17.147Z,4.13
2023-01-28T18:23:53.837Z,4.70
2023-01-28T18:25:27.258Z,4.30
2023-01-28T18:27:03.348Z,4.20
2023-01-28T18:28:36.801Z,3.75
2023-01-28T18:30:13.932Z,4.10
2023-01-28T18:31:48.711Z,5.18
2023-01-28T18:33:24.663Z,5.30
2023-01-28T18:34:58.107Z,4.78
2023-01-28T18:36:31.443Z,5.45
2023-01-28T18:38:04.681Z,4.70
2023-01-28T18:39:39.727Z,4.90
2023-01-28T18:41:13.091Z,4.30
2023-01-28T18:42:46.320Z,4.32
2023-01-28T18:44:19.786Z,4.60
2023-01-28T18:45:53.390Z,4.32
2023-01-28T18:47:27.075Z,4.70
2023-01-28T18:49:02.143Z,4.57
2023-01-28T18:50:35.924Z,4.82
2023-01-28T18:52:09.352Z,5.65
2023-01-28T18:53:42.972Z,4.95
2023-01-28T18:55:16.539Z,9.68
2023-01-28T18:56:50.600Z,5.65
2023-01-28T18:58:23.720Z,5.53
2023-01-28T18:59:57.461Z,5.05
2023-01-28T19:01:32.682Z,5.40
2023-01-28T19:04:40.685Z,4.80
2023-01-28T19:06:15.821Z,5.25
2023-01-28T19:09:22.353Z,5.15
2023-01-28T19:10:58.596Z,4.85
2023-01-28T19:12:32.015Z,4.85
2023-01-28T19:14:06.253Z,5.50
2023-01-28T19:15:39.480Z,5.53
2023-01-28T19:17:12.922Z,6.03
2023-01-28T19:18:52.430Z,13.45
2023-01-28T19:20:27.131Z,34.58
2023-01-28T19:22:00.586Z,15.98
2023-01-28T19:23:48.937Z,10.25
2023-01-28T19:25:23.066Z,7.47
2023-01-28T19:26:56.358Z,7.10
2023-01-28T19:28:33.485Z,7.32
2023-01-28T19:30:08.981Z,7.10
2023-01-28T19:31:43.600Z,6.43
2023-01-28T19:33:17.144Z,7.18
2023-01-28T19:34:50.767Z,5.90
2023-01-28T19:36:27.585Z,6.32
2023-01-28T19:38:01.150Z,6.45
2023-01-28T19:39:34.401Z,6.35
2023-01-28T19:41:08.041Z,7.00
2023-01-28T19:42:41.239Z,8.38
2023-01-28T19:44:15.572Z,7.60
2023-01-28T19:45:57.355Z,7.00
2023-01-28T19:47:30.740Z,6.82
2023-01-28T19:49:05.852Z,6.45
2023-01-28T19:50:39.279Z,6.82
2023-01-28T19:52:13.869Z,7.60
2023-01-28T19:53:50.661Z,7.55
2023-01-28T19:55:24.174Z,7.55
2023-01-28T19:56:57.531Z,7.20
2023-01-28T19:58:34.252Z,7.40
2023-01-28T20:00:09.897Z,7.55
2023-01-28T20:01:43.221Z,8.02
2023-01-28T20:03:16.705Z,7.30
2023-01-28T20:05:00.346Z,7.68
2023-01-28T20:06:36.587Z,7.07
2023-01-28T20:08:11.652Z,8.55
2023-01-28T20:09:45.021Z,7.90
2023-01-28T20:11:18.249Z,7.97
2023-01-28T20:12:51.418Z,8.88
2023-01-28T20:14:24.663Z,7.70
2023-01-28T20:15:57.871Z,8.18
2023-01-28T20:17:31.502Z,8.93
2023-01-28T20:19:07.963Z,8.23
2023-01-28T20:20:41.231Z,7.68
2023-01-28T20:22:14.397Z,8.23
2023-01-28T20:23:51.363Z,8.68
2023-01-28T20:25:24.560Z,9.25
2023-01-28T20:26:57.749Z,8.27
2023-01-28T20:28:31.357Z,8.48
2023-01-28T20:30:05.872Z,8.82
2023-01-28T20:31:41.296Z,8.85
2023-01-28T20:33:14.740Z,9.40
2023-01-28T20:34:47.900Z,8.57
2023-01-28T20:36:26.468Z,8.95
2023-01-28T20:38:03.983Z,10.05
2023-01-28T20:39:38.743Z,8.85
2023-01-28T20:41:15.159Z,9.80
2023-01-28T20:42:48.549Z,9.73
2023-01-28T20:44:21.977Z,9.15
2023-01-28T20:45:57.131Z,9.27
2023-01-28T20:49:06.420Z,8.65
2023-01-28T20:50:39.869Z,8.90
2023-01-28T20:52:13.034Z,9.27
2023-01-28T20:53:47.065Z,9.27
2023-01-28T20:55:21.622Z,9.82
2023-01-28T20:56:55.111Z,8.98
2023-01-28T20:58:30.454Z,9.60
2023-01-28T21:00:04.802Z,8.82
2023-01-28T21:01:38.828Z,11.05
2023-01-28T21:03:12.136Z,9.48
2023-01-28T21:04:45.305Z,9.85
2023-01-28T21:06:19.307Z,9.70
2023-01-28T21:07:52.601Z,9.38
2023-01-28T21:09:27.742Z,9.15
2023-01-28T21:11:05.159Z,10.15
2023-01-28T21:12:38.513Z,9.52
2023-01-28T21:14:12.479Z,9.80
2023-01-28T21:15:54.261Z,9.35
2023-01-28T21:17:27.414Z,10.00
2023-01-28T21:19:00.579Z,10.20
2023-01-28T21:20:35.024Z,10.35
2023-01-28T21:22:08.246Z,10.88
2023-01-28T21:23:41.441Z,9.70
2023-01-28T21:25:15.932Z,10.60
2023-01-28T21:27:00.464Z,9.43
2023-01-28T21:28:34.205Z,10.63
2023-01-28T21:30:09.742Z,10.25
2023-01-28T21:31:44.117Z,9.85
2023-01-28T21:33:16.393Z,10.18
2023-01-28T21:34:49.789Z,10.45
2023-01-28T21:36:24.334Z,9.45
2023-01-28T21:37:57.836Z,10.23
2023-01-28T21:39:31.033Z,10.07
2023-01-28T21:41:10.313Z,10.95
2023-01-28T21:42:44.952Z,10.75
2023-01-28T21:44:18.103Z,9.77
2023-01-28T21:45:57.017Z,10.38
2023-01-28T21:47:30.655Z,10.80
2023-01-28T21:49:05.950Z,9.73
2023-01-28T21:52:32.441Z,10.10
2023-01-28T21:54:09.308Z,10.75
2023-01-28T21:55:46.203Z,9.77
2023-01-28T21:57:21.015Z,10.95
2023-01-28T21:59:13.307Z,10.13
2023-01-28T22:00:46.698Z,10.57
2023-01-28T22:02:22.745Z,10.68
2023-01-28T22:03:56.010Z,10.60
2023-01-28T22:05:30.059Z,10.73
2023-01-28T22:07:06.198Z,10.27
2023-01-28T22:08:39.401Z,10.60
2023-01-28T22:10:13.427Z,10.70
2023-01-28T22:11:47.577Z,11.73
2023-01-28T22:13:22.028Z,10.05
2023-01-28T22:14:56.601Z,10.80